Airfield :
LOGIN :

Register | Disclaimer

   EN    FR    IT 

 










Legend :    VFR   Marginal VFR   IFR   Intensive IFR   Very Intensive IFR
Visi :
Ceiling :
>= 8 km
>= 3000ft
5 to 8 km
1000 to 3000 ft
1500m to 5 km
500 to 1000 ft
800 to 1500m
200 to 500 ft
< 800m
< 200 ft
Symbols :   Thunderstorms  Fog  Heavy snow  Heavy precipitations  Wind > 20 kt
SIGMETs :     Misc.  Thunderstorms  Icing  Turbulence  Mountain Waves  Volcanic Ashes






- Airport Elevation : 80 ft
- IATA code : LPL


EGGP - Liverpool John Lennon

CURRENT METAR :
  • 250220Z AUTO 19011KT 9999 BKN047/// 13/09 Q1007

EXPIRED METARs :
  • 250150Z AUTO 20009KT 9999 FEW037/// BKN049/// 12/09 Q1007
  • 250120Z AUTO 22010KT 9999 SCT033/// BKN038/// 13/09 Q1008
  • 250050Z 22011KT CAVOK 13/09 Q1008
  • 250020Z 20011KT 9999 FEW041 12/08 Q1008
  • 242350Z 20009KT 9999 SCT045 13/08 Q1008

TAF TAF EGGP
Valid from the 25 at 00:00 until the 26 at 00:00 UTC


242259Z 2500/2524 20009KT 9999 SCT045
TEMPO 2505/2511 8000 -RA BKN014
PROB30
TEMPO 2506/2510 4000 RADZ BKN009
BECMG 2509/2512 28017G27KT
PROB30
TEMPO 2511/2517 7000 SHRA
BECMG 2518/2521 26010KT
ATIS : +44 151 907 2000 (option 5 or ext 5150)
Met : +44 871 750 5150



MET'MAP, your aeronautical weather chart ! - Copyright ORBIFLY December 2007 - Disclaimer

ORBIFLY MET'MAP TEAM :

Programming & Development : Alexandra Zaïnal
Original concept : Baudouin d'Aumeries
Technical & hardware support : Manuel Goepfert
Assistance : Marc-Olivier Méhu

Contact : metmap@orbifly.com




SOURCES & CREDITS :

   NOAA